Port Hadlock, Washington
Current Conditions -  °F | °C
As of 10:56 PM on Friday 24 Oct 2014 (Local Time) from KNUW Reporting Station
Light Rain Light Rain  
Wind Chill: 52°   Ceiling: 6000
Heat Index: 52°   Visibility: 10mi
Dew Point: 48°   Wind: 6mph
Humidity: 86%   Direction: 100°E
Pressure: 29.84"   Gusts: NA
Location:  48.03°N, 122.76°W
Report Text: KNUW 250556Z 10005KT 10SM -RA SCT020 BKN060 OVC090 11/09 A2984 RMK AO2 SLP108 P0003 60005 T01110089 10133 20106 58012 $
Loading
Personal Weather Stations






























Interactive Weather Map
Tropical Storm Tracking
New forecast layout! Learn more

10-Day Weather Forecast

Advertisements
Track Severe Weather on mobile